Ana Sayfa
METAR-TAF:

METAR-TAF

Havaalanları :

Mariehamn Havalimanı

Mariehamn, Finlandiya

Enlem: 60-07N, Boylam: 019-54E, yükseklik: 6 m

Güncel hava durumu gözlemi

Rapor saat 04:50 UTC de 13 dakika önce yapıldı.
Rüzgar kuzeybatıdan 10 kt, batı ve kuzey/kuzeybatı arasında değişken
Sıcaklık 3°C
Nem 60%
Basınç 1002 hPa
Görüş mesafesi 10 km veya daha fazla
1500 m altında bulut yok ve kümülonimbus yok

METAR: EFMA 010450Z AUTO 31010KT 280V340 CAVOK 03/M04 Q1002

Saat: 08:03 (05:03 UTC)

Tahmin

Rapor saat 02:28 UTC de 2 saat ve 35 dakika önce yapıldı.
Ayın 01'si saat 03 UTC'den ayın 01'si saat 12 UTC'ye kadar geçerli Tahmin
Rüzgar kuzeybatıdan 11 kt
Görüş mesafesi 10 km veya daha fazla
1500 m altında bulut yok ve kümülonimbus yok
Olasılık 40% :
Geçici
ayın 01'si saat 05 UTC'den ayın 01'si saat 10 UTC'ye kadar
Rüzgar kuzeybatıdan 15 kt ve 25 kt'a kadar ani rüzgarlar

TAF: EFMA 010228Z 0103/0112 31011KT CAVOK PROB40 TEMPO 0105/0110 31015G25KT

4.000'den fazla havaalanı için hava durumu gözlemleri ve tahminleri (METAR ve TAF raporları).

Kullanılabilir istasyonlar harita üzerinde sarı ve kırmızı noktalarla gösterilir.

İstasyonun adını görmek için fareyi noktanın üzerinde gezdirin.

Sonrasında hava gözlem ve tahminlerini görmek için tıklayın.

Haritayı değiştirmek için: yaklaştırmak için siyah artı işaretli yeşil düğmeye ve uzaklaştırmak için de eksi işaretli düğmeye hızla tıklayın; bitişik haritalar için yeşil okları kullanın.


METAR-TAF: